Time;durP1;ratioP1;P1;durP2;ratioP2;P2;SDS_P1;SDS_P2;PMS_P1;PMS_P2;Temp;Humidity;BMP_temperature;BMP_pressure;BME280_temperature;BME280_humidity;BME280_pressure;Samples;Min_cycle;Max_cycle;Signal;HPM_P1;HPM_P2
2022/05/28 00:02:56;;;;;;;11.60;2.30;;;11.40;99.90;;;;;;6225377;28;20045;-76
2022/05/28 00:05:58;;;;;;;13.02;1.90;;;11.30;99.90;;;;;;6225287;28;20046;-76
2022/05/28 00:09:01;;;;;;;11.23;1.65;;;11.20;99.90;;;;;;6225597;28;20057;-75
2022/05/28 00:12:03;;;;;;;10.23;1.58;;;11.50;99.90;;;;;;6225112;28;20458;-75
2022/05/28 00:15:07;;;;;;;11.35;1.73;;;11.40;99.90;;;;;;6225447;28;20131;-74
2022/05/28 00:18:11;;;;;;;12.00;1.70;;;11.50;99.90;;;;;;6225310;28;20054;-75
2022/05/28 00:21:14;;;;;;;15.52;1.90;;;11.30;99.90;;;;;;6225158;28;20069;-76
2022/05/28 00:24:16;;;;;;;;;;;11.20;99.90;;;;;;6224208;28;20474;-75
2022/05/28 00:27:18;;;;;;;9.85;2.33;;;11.10;99.90;;;;;;6225382;28;20019;-75
2022/05/28 00:30:20;;;;;;;11.60;1.88;;;11.10;99.90;;;;;;6225294;28;20132;-75
2022/05/28 00:33:23;;;;;;;9.95;1.52;;;11.10;99.90;;;;;;6224817;28;20046;-76
2022/05/28 00:36:25;;;;;;;;;;;11.00;99.90;;;;;;6225376;28;20049;-75
2022/05/28 00:39:27;;;;;;;14.40;1.88;;;11.10;99.90;;;;;;6224686;28;19925;-76
2022/05/28 00:42:29;;;;;;;11.50;1.75;;;11.10;99.90;;;;;;6224737;28;20188;-76
2022/05/28 00:45:33;;;;;;;15.02;1.80;;;11.10;99.90;;;;;;6224021;28;20140;-75
2022/05/28 00:48:40;;;;;;;9.38;2.17;;;11.00;99.90;;;;;;6224383;28;20486;-76
2022/05/28 00:51:47;;;;;;;12.05;2.05;;;11.00;99.90;;;;;;6224535;28;20054;-76
2022/05/28 00:54:50;;;;;;;8.80;1.52;;;11.00;99.90;;;;;;6224559;28;20060;-75
2022/05/28 00:57:52;;;;;;;11.05;1.88;;;10.90;99.90;;;;;;6224009;28;20141;-74
2022/05/28 01:00:54;;;;;;;13.50;1.98;;;11.10;99.90;;;;;;6224350;28;20141;-76
2022/05/28 01:04:07;;;;;;;11.10;1.98;;;11.20;99.90;;;;;;6224350;28;20101;-75
2022/05/28 01:07:16;;;;;;;12.00;2.20;;;11.10;99.90;;;;;;6224212;28;20137;-75
2022/05/28 01:10:23;;;;;;;9.57;1.60;;;11.10;99.90;;;;;;6223908;28;20523;-75
2022/05/28 01:13:30;;;;;;;14.25;1.90;;;11.40;99.90;;;;;;6223857;28;20045;-75
2022/05/28 01:16:36;;;;;;;16.02;1.85;;;11.20;99.90;;;;;;6224098;28;20046;-74
2022/05/28 01:19:51;;;;;;;13.40;1.73;;;11.00;99.90;;;;;;6223678;28;20112;-76
2022/05/28 01:23:13;;;;;;;7.90;1.63;;;10.90;99.90;;;;;;6223470;28;20731;-75
2022/05/28 01:26:21;;;;;;;13.00;2.45;;;11.00;99.90;;;;;;6223871;28;20062;-75
2022/05/28 01:29:29;;;;;;;14.65;1.80;;;11.10;99.90;;;;;;6223456;28;20099;-75
2022/05/28 01:32:33;;;;;;;13.88;1.90;;;11.10;99.90;;;;;;6223736;28;20144;-74
2022/05/28 01:35:36;;;;;;;11.80;1.98;;;11.40;99.90;;;;;;6222998;28;20522;-76
2022/05/28 01:38:40;;;;;;;9.80;1.65;;;11.20;99.90;;;;;;6223613;28;20052;-75
2022/05/28 01:41:44;;;;;;;9.05;1.88;;;11.00;99.90;;;;;;6223407;28;20129;-73
2022/05/28 01:44:50;;;;;;;12.00;2.03;;;11.00;99.90;;;;;;6223089;28;20042;-75
2022/05/28 01:47:53;;;;;;;18.10;2.30;;;10.80;99.90;;;;;;6223025;28;20199;-75
2022/05/28 01:50:56;;;;;;;14.07;1.90;;;10.90;99.90;;;;;;6223356;28;20140;-75
2022/05/28 01:54:13;;;;;;;9.13;1.83;;;10.80;99.90;;;;;;6222793;28;20112;-76
2022/05/28 01:57:16;;;;;;;9.10;1.67;;;10.90;99.90;;;;;;6222916;28;20463;-75
2022/05/28 02:00:19;;;;;;;12.35;2.20;;;11.10;99.90;;;;;;6223097;28;20046;-75
2022/05/28 02:03:22;;;;;;;10.82;2.15;;;10.90;99.90;;;;;;6222839;28;20144;-75
2022/05/28 02:06:24;;;;;;;12.82;2.17;;;11.00;99.90;;;;;;6222508;28;20065;-76
2022/05/28 02:09:32;;;;;;;11.35;1.90;;;10.90;99.90;;;;;;6223166;28;20050;-76
2022/05/28 02:12:41;;;;;;;10.98;1.77;;;10.90;99.90;;;;;;6222564;28;20099;-76
2022/05/28 02:15:49;;;;;;;10.35;1.80;;;10.80;99.90;;;;;;6222714;28;20189;-75
2022/05/28 02:18:56;;;;;;;15.50;2.20;;;10.70;99.90;;;;;;6222047;28;20054;-75
2022/05/28 02:22:04;;;;;;;8.02;1.60;;;10.60;99.90;;;;;;6222675;28;20129;-76
2022/05/28 02:25:13;;;;;;;8.68;2.10;;;10.80;99.90;;;;;;6222276;28;20132;-76
2022/05/28 02:28:16;;;;;;;14.88;2.10;;;10.90;99.90;;;;;;6222903;28;20179;-76
2022/05/28 02:31:24;;;;;;;13.07;2.50;;;10.90;99.90;;;;;;6222019;28;20578;-75
2022/05/28 02:34:26;;;;;;;15.27;2.53;;;10.80;99.90;;;;;;6222647;28;20099;-75
2022/05/28 02:37:29;;;;;;;19.40;2.88;;;10.60;99.90;;;;;;6222445;28;20129;-76
2022/05/28 02:40:31;;;;;;;12.48;2.67;;;10.50;99.90;;;;;;6222169;28;20145;-75
2022/05/28 02:43:33;;;;;;;15.77;3.00;;;10.50;99.90;;;;;;6222084;28;20128;-75
2022/05/28 02:46:36;;;;;;;17.17;2.50;;;10.50;99.90;;;;;;6224236;28;20054;-75
2022/05/28 02:49:38;;;;;;;;;;;10.50;99.90;;;;;;6228105;28;20107;-75
2022/05/28 02:52:41;;;;;;;12.77;2.17;;;10.60;99.90;;;;;;6226911;28;19921;-75
2022/05/28 02:55:43;;;;;;;;;;;10.80;99.90;;;;;;6227643;28;20046;-75
2022/05/28 02:58:45;;;;;;;13.88;2.80;;;10.80;99.90;;;;;;6226525;28;20401;-75
2022/05/28 03:01:48;;;;;;;17.67;3.05;;;10.70;99.90;;;;;;6227169;28;20185;-75
2022/05/28 03:04:50;;;;;;;16.00;2.80;;;10.70;99.90;;;;;;6226682;28;20491;-76
2022/05/28 03:07:52;;;;;;;20.45;2.80;;;10.60;99.90;;;;;;6226860;28;20140;-76
2022/05/28 03:10:54;;;;;;;15.52;2.80;;;10.40;99.90;;;;;;6226218;28;20510;-74
2022/05/28 03:13:56;;;;;;;19.42;3.03;;;10.40;99.90;;;;;;6226625;28;20112;-75
2022/05/28 03:16:59;;;;;;;17.08;3.13;;;10.30;99.90;;;;;;6226298;28;20046;-75
2022/05/28 03:20:01;;;;;;;16.90;2.28;;;10.30;99.90;;;;;;6226273;28;20140;-74
2022/05/28 03:23:03;;;;;;;19.40;3.28;;;10.40;99.90;;;;;;6227025;28;20092;-74
2022/05/28 03:26:12;;;;;;;18.63;2.90;;;10.50;99.90;;;;;;6226091;28;20325;-75
2022/05/28 03:29:15;;;;;;;13.18;2.67;;;10.50;99.90;;;;;;6226080;28;20499;-75
2022/05/28 03:32:18;;;;;;;16.95;2.80;;;10.50;99.90;;;;;;6225871;28;20204;-74
2022/05/28 03:35:20;;;;;;;14.65;2.80;;;10.60;99.90;;;;;;6226546;28;20125;-75
2022/05/28 03:38:23;;;;;;;22.63;3.15;;;10.50;99.90;;;;;;6225880;28;20095;-74
2022/05/28 03:41:27;;;;;;;13.88;2.17;;;10.60;99.90;;;;;;6226225;28;20049;-75
2022/05/28 03:44:28;;;;;;;;;;;10.80;99.90;;;;;;6226519;28;20045;-75
2022/05/28 03:47:32;;;;;;;15.85;3.33;;;10.90;99.90;;;;;;6226217;28;20012;-76
2022/05/28 03:50:34;;;;;;;19.02;2.95;;;10.80;99.90;;;;;;6225386;28;20068;-75
2022/05/28 03:53:36;;;;;;;16.13;2.78;;;10.80;99.90;;;;;;6225905;28;20060;-75
2022/05/28 03:56:42;;;;;;;17.77;2.95;;;10.90;99.90;;;;;;6225652;28;20096;-76
2022/05/28 03:59:43;;;;;;;17.45;3.05;;;10.90;99.90;;;;;;6226205;28;20129;-75
2022/05/28 04:02:47;;;;;;;15.45;2.38;;;10.80;99.90;;;;;;6225626;28;20069;-75
2022/05/28 04:05:49;;;;;;;17.27;2.47;;;10.80;99.90;;;;;;6225070;28;20490;-75
2022/05/28 04:08:51;;;;;;;14.85;2.67;;;11.00;99.90;;;;;;6225561;28;20133;-76
2022/05/28 04:11:52;;;;;;;12.27;2.55;;;11.20;99.90;;;;;;6225214;28;20046;-75
2022/05/28 04:14:54;;;;;;;10.02;2.25;;;11.50;99.90;;;;;;6225113;28;20054;-75
2022/05/28 04:17:58;;;;;;;12.77;2.55;;;11.40;99.90;;;;;;6224837;28;20379;-75
2022/05/28 04:21:00;;;;;;;11.57;2.47;;;11.50;99.90;;;;;;6225513;28;20046;-75
2022/05/28 04:24:02;;;;;;;14.02;2.28;;;11.20;99.90;;;;;;6225115;28;20045;-75
2022/05/28 04:27:04;;;;;;;14.93;2.90;;;11.20;99.90;;;;;;6225259;28;20049;-75
2022/05/28 04:30:07;;;;;;;18.92;2.70;;;11.10;99.90;;;;;;6225086;28;20054;-75
2022/05/28 04:33:11;;;;;;;16.98;2.75;;;11.10;99.90;;;;;;6224883;28;20633;-75
2022/05/28 04:36:12;;;;;;;17.08;3.03;;;10.90;99.90;;;;;;6224671;28;20177;-75
2022/05/28 04:39:14;;;;;;;19.77;3.10;;;10.90;99.90;;;;;;6224471;28;20426;-75
2022/05/28 04:42:16;;;;;;;17.63;2.90;;;10.80;99.90;;;;;;6224681;28;20046;-74
2022/05/28 04:45:18;;;;;;;16.02;2.90;;;10.80;99.90;;;;;;6224030;28;20498;-75
2022/05/28 04:48:21;;;;;;;12.65;2.45;;;10.80;99.90;;;;;;6224899;28;20086;-75
2022/05/28 04:51:23;;;;;;;11.80;1.92;;;10.90;99.90;;;;;;6224336;28;20545;-76
2022/05/28 04:54:25;;;;;;;10.88;2.00;;;10.80;99.90;;;;;;6224798;28;20077;-74
2022/05/28 04:57:27;;;;;;;8.27;1.50;;;10.70;99.90;;;;;;6224063;28;20191;-75
2022/05/28 05:00:29;;;;;;;10.43;1.65;;;10.60;99.90;;;;;;6221838;28;20462;-74
2022/05/28 05:03:34;;;;;;;10.18;1.77;;;10.50;99.90;;;;;;6208931;28;20136;-75
2022/05/28 05:06:36;;;;;;;11.00;1.85;;;10.70;99.90;;;;;;6210933;28;20469;-76
2022/05/28 05:09:38;;;;;;;13.13;2.17;;;10.80;99.90;;;;;;6198892;28;20177;-76
2022/05/28 05:12:40;;;;;;;12.45;2.20;;;10.90;99.90;;;;;;6199562;28;20510;-75
2022/05/28 05:15:42;;;;;;;15.32;2.42;;;11.00;99.90;;;;;;6221343;28;20048;-76
2022/05/28 05:18:45;;;;;;;15.75;3.08;;;11.00;99.90;;;;;;6223750;28;20141;-75
2022/05/28 05:21:47;;;;;;;13.35;2.50;;;11.00;99.90;;;;;;6224104;28;20045;-75
2022/05/28 05:24:49;;;;;;;13.45;2.60;;;11.00;99.90;;;;;;6223320;28;20494;-75
2022/05/28 05:27:50;;;;;;;19.42;3.15;;;10.90;99.90;;;;;;6223584;28;20057;-75
2022/05/28 05:30:52;;;;;;;16.65;3.20;;;10.90;99.90;;;;;;6223240;28;20357;-77
2022/05/28 05:33:55;;;;;;;19.35;3.20;;;11.00;99.90;;;;;;6223415;28;20536;-74
2022/05/28 05:36:57;;;;;;;20.85;3.05;;;11.00;99.90;;;;;;6223658;28;20085;-76
2022/05/28 05:39:59;;;;;;;18.00;3.30;;;11.10;99.90;;;;;;6210464;28;20046;-76
2022/05/28 05:43:01;;;;;;;16.67;3.60;;;11.30;99.90;;;;;;6198609;28;20185;-75
2022/05/28 05:46:04;;;;;;;14.73;3.10;;;12.00;99.90;;;;;;6199094;28;20177;-76
2022/05/28 05:49:08;;;;;;;18.58;3.28;;;12.60;99.90;;;;;;6216747;28;20200;-76
2022/05/28 05:52:10;;;;;;;25.38;4.07;;;12.30;99.90;;;;;;6223224;28;20134;-75
2022/05/28 05:55:11;;;;;;;24.83;4.20;;;12.10;99.90;;;;;;6222997;28;20129;-75
2022/05/28 05:58:14;;;;;;;15.93;3.53;;;12.30;99.90;;;;;;6223028;28;20151;-76
2022/05/28 06:01:16;;;;;;;20.08;3.63;;;12.40;99.90;;;;;;6223276;28;20184;-76
2022/05/28 06:04:19;;;;;;;23.35;3.38;;;12.40;99.90;;;;;;6222473;28;20519;-77
2022/05/28 06:07:21;;;;;;;;;;;12.20;99.90;;;;;;6223779;28;20191;-76
2022/05/28 06:10:23;;;;;;;13.20;2.72;;;12.10;99.90;;;;;;6222589;28;20411;-76
2022/05/28 06:13:25;;;;;;;17.13;2.47;;;12.00;99.90;;;;;;6222482;28;20136;-76
2022/05/28 06:16:27;;;;;;;13.95;3.00;;;12.00;99.90;;;;;;6222317;28;20199;-77
2022/05/28 06:19:30;;;;;;;16.00;2.88;;;12.00;99.90;;;;;;6221804;28;20196;-76
2022/05/28 06:22:33;;;;;;;14.00;2.33;;;11.80;99.90;;;;;;6222029;28;20092;-76
2022/05/28 06:25:37;;;;;;;11.45;2.00;;;11.50;99.90;;;;;;6222840;28;20183;-75
2022/05/28 06:28:39;;;;;;;9.98;1.65;;;11.20;99.90;;;;;;6222201;28;20144;-76
2022/05/28 06:31:41;;;;;;;7.45;1.77;;;10.90;99.90;;;;;;6222603;28;20050;-75
2022/05/28 06:34:44;;;;;;;6.60;1.65;;;10.90;99.90;;;;;;6222665;28;20046;-76
2022/05/28 06:37:47;;;;;;;9.43;1.70;;;11.00;99.90;;;;;;6222077;28;20173;-76
2022/05/28 06:40:49;;;;;;;10.30;2.47;;;10.90;99.90;;;;;;6221992;28;20444;-75
2022/05/28 06:43:52;;;;;;;12.68;2.40;;;10.90;99.90;;;;;;6221830;28;20136;-77
2022/05/28 06:46:54;;;;;;;10.02;2.45;;;11.10;99.90;;;;;;6222286;28;20135;-76
2022/05/28 06:53:16;;;;;;;17.15;2.85;;;11.50;99.90;;;;;;6222020;28;20486;-74
2022/05/28 06:56:19;;;;;;;15.95;3.28;;;11.50;99.90;;;;;;6221754;28;20552;-75
2022/05/28 06:59:21;;;;;;;17.77;3.20;;;11.70;99.90;;;;;;6222624;28;20104;-76
2022/05/28 07:02:23;;;;;;;20.73;3.40;;;12.00;99.90;;;;;;6222154;28;20050;-77
2022/05/28 07:05:28;;;;;;;21.95;3.67;;;12.40;99.90;;;;;;6222146;28;20133;-78
2022/05/28 07:08:30;;;;;;;24.08;4.15;;;12.80;99.90;;;;;;6212694;28;20053;-76
2022/05/28 07:11:32;;;;;;;13.25;3.22;;;13.50;99.90;;;;;;6206525;28;20137;-76
2022/05/28 07:14:34;;;;;;;15.85;2.88;;;13.70;99.90;;;;;;6221208;28;20524;-76
2022/05/28 07:17:36;;;;;;;15.80;2.70;;;13.90;99.90;;;;;;6221641;28;20160;-75
2022/05/28 07:20:39;;;;;;;15.90;2.97;;;14.20;99.90;;;;;;6221410;28;20136;-76
2022/05/28 07:23:42;;;;;;;13.30;2.10;;;14.40;99.90;;;;;;6221139;28;20137;-77
2022/05/28 07:26:44;;;;;;;15.02;2.63;;;14.70;99.90;;;;;;6221776;28;20136;-76
2022/05/28 07:29:46;;;;;;;20.08;3.53;;;14.50;99.90;;;;;;6221009;28;20145;-77
2022/05/28 07:32:47;;;;;;;16.10;2.53;;;13.90;99.90;;;;;;6224127;28;20189;-76
2022/05/28 07:35:51;;;;;;;18.08;2.83;;;13.60;99.90;;;;;;6226259;28;20073;-76
2022/05/28 07:38:55;;;;;;;16.58;2.35;;;14.10;99.90;;;;;;6219155;28;20189;-76
2022/05/28 07:41:57;;;;;;;14.05;2.80;;;14.20;99.90;;;;;;6201544;28;20197;-76
2022/05/28 07:44:59;;;;;;;12.23;2.45;;;14.40;99.90;;;;;;6201471;28;20277;-77
2022/05/28 07:48:01;;;;;;;19.35;2.72;;;14.00;99.90;;;;;;6218154;28;20085;-76
2022/05/28 07:51:04;;;;;;;17.45;3.10;;;13.60;99.90;;;;;;6225949;28;20129;-77
2022/05/28 07:54:06;;;;;;;18.33;2.80;;;13.30;99.90;;;;;;6225986;28;20128;-77
2022/05/28 07:57:08;;;;;;;14.38;2.80;;;13.40;99.90;;;;;;6225996;28;20188;-77
2022/05/28 08:00:11;;;;;;;14.30;3.00;;;13.40;99.90;;;;;;6225536;28;20492;-77
2022/05/28 08:03:14;;;;;;;15.27;3.10;;;13.60;99.90;;;;;;6225472;28;20176;-77
2022/05/28 08:06:18;;;;;;;15.25;2.75;;;14.10;99.90;;;;;;6225381;28;20510;-77
2022/05/28 08:09:20;;;;;;;18.15;3.60;;;14.00;99.90;;;;;;6224754;28;20649;-76
2022/05/28 08:12:22;;;;;;;18.23;2.83;;;13.90;99.90;;;;;;6225511;28;20068;-77
2022/05/28 08:15:24;;;;;;;16.70;2.92;;;13.70;99.90;;;;;;6225315;28;20054;-77
2022/05/28 08:18:26;;;;;;;15.75;3.03;;;13.40;99.90;;;;;;6224553;28;20373;-76
2022/05/28 08:24:49;;;;;;;11.57;2.72;;;13.20;99.90;;;;;;6225267;28;20046;-77
2022/05/28 08:27:50;;;;;;;16.83;2.78;;;13.80;99.90;;;;;;6225098;28;20057;-77
2022/05/28 08:30:55;;;;;;;13.40;2.70;;;13.90;99.90;;;;;;6224848;28;20107;-77
2022/05/28 08:33:57;;;;;;;17.10;3.20;;;14.20;99.90;;;;;;6224899;28;20050;-77
2022/05/28 08:37:00;;;;;;;12.57;2.67;;;14.00;99.90;;;;;;6224833;28;20049;-77
2022/05/28 08:40:02;;;;;;;15.25;2.65;;;14.30;99.90;;;;;;6213221;28;20100;-77
2022/05/28 08:43:04;;;;;;;13.70;2.50;;;14.60;99.50;;;;;;6206360;28;20050;-77
2022/05/28 08:46:11;;;;;;;15.00;2.85;;;14.80;99.40;;;;;;6200118;28;20086;-77
2022/05/28 08:49:15;;;;;;;21.35;2.85;;;14.60;99.10;;;;;;6199981;28;20507;-77
2022/05/28 08:52:22;;;;;;;16.17;2.67;;;14.40;98.30;;;;;;6200472;28;20129;-77
2022/05/28 08:55:27;;;;;;;18.75;2.90;;;14.70;99.00;;;;;;6211232;28;20470;-78
2022/05/28 08:58:30;;;;;;;16.10;3.10;;;14.30;99.00;;;;;;6224407;28;20136;-78
2022/05/28 09:01:37;;;;;;;14.30;2.10;;;14.00;99.20;;;;;;6224060;28;20085;-77
2022/05/28 09:04:41;;;;;;;16.17;2.78;;;13.90;99.90;;;;;;6224272;28;20046;-77
2022/05/28 09:07:45;;;;;;;12.95;2.15;;;14.10;99.60;;;;;;6223830;28;20050;-77
2022/05/28 09:10:50;;;;;;;13.23;2.15;;;14.20;99.70;;;;;;6199719;28;20050;-77
2022/05/28 09:13:54;;;;;;;13.80;2.45;;;14.30;99.10;;;;;;6222848;28;20046;-77
2022/05/28 09:17:00;;;;;;;13.35;2.72;;;14.10;99.10;;;;;;6223919;28;20093;-78
2022/05/28 09:20:05;;;;;;;17.83;2.42;;;14.10;98.50;;;;;;6223201;28;20192;-77
2022/05/28 09:23:08;;;;;;;13.07;2.47;;;14.10;99.20;;;;;;6223655;28;20351;-77
2022/05/28 09:26:11;;;;;;;14.02;2.50;;;14.10;99.30;;;;;;6223455;28;20542;-76
2022/05/28 09:29:21;;;;;;;11.38;2.25;;;13.80;98.40;;;;;;6222950;28;20053;-77
2022/05/28 09:32:30;;;;;;;13.27;2.30;;;14.00;98.30;;;;;;6223077;28;20530;-75
2022/05/28 09:35:48;;;;;;;12.98;2.38;;;14.20;98.70;;;;;;6223807;28;20048;-76
2022/05/28 09:39:04;;;;;;;15.05;3.03;;;14.40;99.30;;;;;;6223245;28;20056;-78
2022/05/28 09:42:18;;;;;;;11.15;2.00;;;14.10;98.60;;;;;;6223665;28;20053;-77
2022/05/28 09:45:23;;;;;;;11.50;2.50;;;14.50;99.00;;;;;;6222600;28;20061;-76
2022/05/28 09:48:29;;;;;;;12.57;2.28;;;14.70;98.10;;;;;;6223508;28;20096;-77
2022/05/28 09:51:32;;;;;;;13.30;2.50;;;14.60;98.70;;;;;;6222979;28;20137;-77
2022/05/28 09:54:36;;;;;;;;;;;14.60;98.50;;;;;;6223441;28;20543;-78
2022/05/28 09:57:45;;;;;;;11.68;2.40;;;14.70;97.30;;;;;;6222891;28;20324;-77
2022/05/28 10:00:50;;;;;;;16.45;2.45;;;14.80;97.30;;;;;;6222942;28;20568;-77
2022/05/28 10:07:14;;;;;;;9.10;1.50;;;14.90;96.60;;;;;;6222569;28;20038;-78
2022/05/28 10:10:21;;;;;;;11.57;1.70;;;14.90;94.90;;;;;;6222990;28;20046;-77
2022/05/28 10:13:24;;;;;;;12.85;2.20;;;14.70;95.80;;;;;;6222618;28;20212;-78
2022/05/28 10:16:34;;;;;;;12.48;1.80;;;14.40;94.90;;;;;;6223030;28;20074;-77
2022/05/28 10:19:41;;;;;;;10.90;1.80;;;14.70;95.10;;;;;;6222344;28;20117;-78
2022/05/28 10:22:43;;;;;;;8.63;1.52;;;15.00;93.60;;;;;;6222124;28;20058;-77
2022/05/28 10:25:49;;;;;;;9.07;2.05;;;15.20;93.90;;;;;;6222926;28;20177;-78
2022/05/28 10:28:54;;;;;;;10.75;1.90;;;14.80;94.50;;;;;;6222417;28;20050;-77
2022/05/28 10:31:58;;;;;;;12.50;2.17;;;14.90;96.20;;;;;;6222468;28;20117;-79
2022/05/28 10:35:04;;;;;;;12.45;2.00;;;15.20;95.10;;;;;;6222485;28;20452;-75
2022/05/28 10:38:07;;;;;;;9.52;1.90;;;14.90;95.00;;;;;;6222424;28;20132;-77
2022/05/28 10:41:16;;;;;;;;;;;15.00;95.10;;;;;;6223085;28;20136;-78
2022/05/28 10:44:19;;;;;;;12.20;2.40;;;14.60;95.60;;;;;;6222104;28;20029;-78
2022/05/28 10:47:42;;;;;;;12.85;1.88;;;14.20;96.10;;;;;;6222048;28;20052;-78
2022/05/28 10:50:56;;;;;;;7.73;1.83;;;14.70;95.50;;;;;;6222647;28;20046;-77
2022/05/28 10:54:14;;;;;;;9.57;1.35;;;15.00;94.40;;;;;;6221784;28;20085;-78
2022/05/28 10:57:57;;;;;;;9.20;1.77;;;15.40;94.10;;;;;;6222478;28;20512;-77
2022/05/28 11:01:04;;;;;;;7.95;1.60;;;14.90;94.10;;;;;;6122979;29;20175;-77
2022/05/28 11:04:35;;;;;;;8.23;1.92;;;15.10;93.60;;;;;;6215220;28;20144;-78
2022/05/28 11:07:51;;;;;;;9.35;1.75;;;15.00;94.10;;;;;;6222621;28;20510;-78
2022/05/28 11:11:05;;;;;;;11.70;1.88;;;15.00;94.60;;;;;;6226419;28;20137;-78
2022/05/28 11:14:24;;;;;;;11.07;2.15;;;15.00;94.70;;;;;;6226760;28;20046;-79
2022/05/28 11:17:50;;;;;;;12.88;2.45;;;14.80;95.10;;;;;;6226833;28;20133;-78
2022/05/28 11:21:00;;;;;;;13.95;3.33;;;14.30;95.80;;;;;;6226256;28;20046;-78
2022/05/28 11:24:15;;;;;;;9.32;1.98;;;14.20;94.70;;;;;;6226705;28;20137;-77
2022/05/28 11:27:24;;;;;;;10.02;2.10;;;14.60;95.70;;;;;;6225942;28;20053;-79
2022/05/28 11:30:32;;;;;;;10.25;2.05;;;15.00;96.10;;;;;;6226498;28;20184;-78
2022/05/28 11:33:38;;;;;;;10.18;1.92;;;15.40;95.40;;;;;;6225763;28;20414;-78
2022/05/28 11:36:45;;;;;;;9.68;1.80;;;15.20;93.70;;;;;;6226611;28;20176;-78
2022/05/28 11:39:55;;;;;;;8.57;1.70;;;15.20;94.50;;;;;;6225961;28;20050;-76
2022/05/28 11:43:03;;;;;;;11.38;2.63;;;14.90;94.20;;;;;;6225800;28;20509;-78
2022/05/28 11:46:19;;;;;;;11.85;1.90;;;15.60;95.30;;;;;;6224823;28;20049;-78
2022/05/28 11:52:53;;;;;;;8.68;1.70;;;16.00;95.30;;;;;;6225821;28;20045;-78
2022/05/28 11:55:59;;;;;;;13.52;2.58;;;16.20;93.20;;;;;;6225582;28;20359;-78
2022/05/28 11:59:05;;;;;;;9.00;1.80;;;16.20;92.90;;;;;;6225840;28;20049;-78
2022/05/28 12:02:13;;;;;;;10.88;1.73;;;15.50;94.40;;;;;;6225642;28;20049;-78
2022/05/28 12:05:17;;;;;;;7.90;1.20;;;15.50;92.40;;;;;;6225253;28;20203;-77
2022/05/28 12:08:23;;;;;;;9.18;1.30;;;15.80;93.20;;;;;;6218810;28;20049;-78
2022/05/28 12:11:46;;;;;;;8.48;1.48;;;16.10;91.80;;;;;;6202884;28;20094;-77
2022/05/28 12:15:02;;;;;;;4.88;1.60;;;16.60;92.20;;;;;;6200355;28;20188;-78
2022/05/28 12:18:21;;;;;;;7.40;1.42;;;16.70;91.00;;;;;;6200799;28;20053;-78
2022/05/28 12:21:25;;;;;;;7.25;1.48;;;15.90;92.40;;;;;;6219858;28;20129;-77
2022/05/28 12:24:29;;;;;;;8.73;2.10;;;15.30;93.50;;;;;;6225098;28;20412;-77
2022/05/28 12:27:38;;;;;;;11.10;2.30;;;14.30;97.30;;;;;;6225236;28;20157;-79
2022/05/28 12:30:51;;;;;;;9.35;1.80;;;14.10;99.40;;;;;;6224457;28;20057;-78
2022/05/28 12:33:56;;;;;;;12.75;2.38;;;13.90;99.90;;;;;;6224743;28;20057;-77
2022/05/28 12:37:00;;;;;;;10.05;1.90;;;13.90;99.90;;;;;;6224907;28;20046;-77
2022/05/28 12:40:14;;;;;;;6.75;1.65;;;13.60;99.40;;;;;;6224737;28;20056;-77
2022/05/28 12:43:18;;;;;;;11.23;2.20;;;13.80;99.90;;;;;;6224443;28;20524;-77
2022/05/28 12:46:34;;;;;;;8.82;1.83;;;13.90;99.80;;;;;;6224224;28;20498;-77
2022/05/28 12:49:49;;;;;;;12.02;1.95;;;14.00;99.40;;;;;;6224606;28;20089;-77
2022/05/28 12:52:57;;;;;;;16.50;2.58;;;13.80;99.90;;;;;;6224388;28;20403;-78
2022/05/28 12:56:02;;;;;;;13.07;2.20;;;14.00;99.90;;;;;;6224226;28;20387;-76
2022/05/28 12:59:10;;;;;;;9.93;2.05;;;13.80;99.90;;;;;;6224185;28;20136;-77
2022/05/28 13:02:27;;;;;;;13.18;2.20;;;13.80;99.90;;;;;;6224416;28;20077;-78
2022/05/28 13:05:35;;;;;;;9.85;1.88;;;13.60;99.70;;;;;;6224572;28;20046;-78
2022/05/28 13:08:46;;;;;;;12.32;1.90;;;13.80;99.90;;;;;;6223509;28;20046;-78
2022/05/28 13:11:52;;;;;;;12.93;1.75;;;13.80;97.80;;;;;;6223680;28;20046;-79
2022/05/28 13:15:25;;;;;;;11.25;2.03;;;13.80;96.70;;;;;;6223776;28;20085;-77
2022/05/28 13:18:52;;;;;;;11.82;1.70;;;14.00;96.70;;;;;;6217021;28;20050;-78
2022/05/28 13:22:01;;;;;;;8.77;1.70;;;14.40;95.50;;;;;;6223677;28;20083;-79
2022/05/28 13:25:21;;;;;;;8.55;1.33;;;14.90;93.70;;;;;;6223790;28;20057;-78
2022/05/28 13:28:39;;;;;;;7.63;1.65;;;14.90;92.70;;;;;;6223263;28;20395;-76
2022/05/28 13:31:46;;;;;;;7.75;1.35;;;15.00;93.20;;;;;;6223147;28;20105;-77
2022/05/28 13:34:59;;;;;;;8.30;1.55;;;15.20;94.10;;;;;;6223907;28;20089;-78
2022/05/28 13:38:03;;;;;;;6.57;1.23;;;15.30;92.80;;;;;;6223514;28;20061;-79
2022/05/28 13:41:09;;;;;;;8.45;1.77;;;15.10;92.70;;;;;;6223597;28;20136;-77
2022/05/28 13:44:14;;;;;;;6.47;1.83;;;15.20;93.40;;;;;;6223276;28;20046;-78
2022/05/28 13:47:19;;;;;;;10.13;2.10;;;15.60;93.10;;;;;;6223543;28;20125;-78
2022/05/28 13:50:27;;;;;;;11.48;2.35;;;15.60;93.40;;;;;;6223287;28;20203;-78
2022/05/28 13:53:32;;;;;;;7.78;1.48;;;15.40;94.30;;;;;;6223204;28;20196;-77
2022/05/28 13:56:34;;;;;;;13.02;2.05;;;15.00;94.80;;;;;;6223056;28;20410;-77
2022/05/28 13:59:38;;;;;;;7.97;1.65;;;14.60;95.20;;;;;;6223362;28;20050;-77
2022/05/28 14:02:40;;;;;;;8.38;1.65;;;14.80;95.30;;;;;;6222770;28;20077;-77
2022/05/28 14:05:45;;;;;;;9.35;1.73;;;15.10;95.20;;;;;;6223100;28;20188;-77
2022/05/28 14:08:51;;;;;;;10.15;1.55;;;15.30;94.50;;;;;;6223144;28;20054;-78
2022/05/28 14:11:54;;;;;;;6.65;1.30;;;15.20;93.60;;;;;;6222793;28;20057;-78
2022/05/28 14:14:56;;;;;;;10.15;1.40;;;15.10;93.50;;;;;;6222589;28;20124;-78
2022/05/28 14:17:58;;;;;;;14.15;1.83;;;14.90;94.30;;;;;;6221991;28;20081;-77
2022/05/28 14:21:08;;;;;;;11.17;1.87;;;14.20;95.80;;;;;;6198598;28;20100;-77
2022/05/28 14:24:18;;;;;;;9.18;1.95;;;13.40;99.90;;;;;;6198261;28;20057;-78
2022/05/28 14:27:25;;;;;;;12.23;2.33;;;13.10;99.90;;;;;;6198327;28;20050;-78
2022/05/28 14:30:31;;;;;;;9.57;1.98;;;12.90;99.90;;;;;;6197845;28;20061;-77
2022/05/28 14:33:38;;;;;;;11.57;1.95;;;12.90;99.90;;;;;;6198488;28;20165;-79
2022/05/28 14:36:49;;;;;;;9.05;1.92;;;12.90;99.90;;;;;;6217580;28;20263;-77
2022/05/28 14:39:53;;;;;;;10.98;1.67;;;12.70;99.90;;;;;;6209155;28;20475;-77
2022/05/28 14:42:57;;;;;;;7.43;1.48;;;12.70;99.90;;;;;;6196728;28;20514;-77
2022/05/28 14:46:18;;;;;;;9.60;1.60;;;12.70;99.90;;;;;;6197579;28;20137;-76
2022/05/28 14:49:28;;;;;;;7.18;1.48;;;12.90;99.90;;;;;;6197561;28;20447;-77
2022/05/28 14:52:33;;;;;;;7.18;1.65;;;13.00;99.90;;;;;;6210370;28;20042;-79
2022/05/28 14:55:38;;;;;;;8.93;1.48;;;13.60;99.90;;;;;;6221994;28;20053;-79
2022/05/28 14:58:43;;;;;;;6.88;1.65;;;14.20;99.90;;;;;;6222307;28;20081;-78
2022/05/28 15:01:45;;;;;;;8.65;1.80;;;14.00;99.90;;;;;;6221645;28;20455;-77
2022/05/28 15:04:48;;;;;;;9.63;2.10;;;13.70;99.90;;;;;;6222252;28;20128;-78
2022/05/28 15:07:51;;;;;;;7.90;2.00;;;14.10;99.90;;;;;;6222035;28;20096;-78
2022/05/28 15:10:56;;;;;;;7.63;1.73;;;14.40;99.90;;;;;;6221796;28;20698;-77
2022/05/28 15:14:09;;;;;;;6.03;1.45;;;14.60;99.90;;;;;;6221882;28;20052;-79
2022/05/28 15:17:12;;;;;;;9.05;1.83;;;14.50;99.90;;;;;;6221622;28;20050;-78
2022/05/28 15:20:14;;;;;;;10.13;1.73;;;14.30;99.90;;;;;;6221879;28;20487;-78
2022/05/28 15:23:16;;;;;;;9.65;1.77;;;13.90;99.90;;;;;;6222112;28;20060;-78
2022/05/28 15:26:20;;;;;;;10.82;2.00;;;13.30;99.90;;;;;;6221851;28;20097;-79
2022/05/28 15:29:21;;;;;;;8.68;1.67;;;13.30;99.90;;;;;;6221626;28;20644;-77
2022/05/28 15:32:26;;;;;;;9.85;1.80;;;13.60;99.90;;;;;;6221826;28;20089;-80
2022/05/28 15:38:49;;;;;;;6.57;1.60;;;13.50;99.60;;;;;;6221609;28;20046;-78
2022/05/28 15:41:53;;;;;;;12.77;2.15;;;13.40;99.50;;;;;;6221477;28;20046;-77
2022/05/28 15:44:56;;;;;;;10.70;1.80;;;13.30;99.90;;;;;;6221178;28;20058;-76
2022/05/28 15:47:59;;;;;;;9.88;1.63;;;13.50;99.90;;;;;;6221515;28;20050;-76
2022/05/28 15:51:02;;;;;;;12.13;2.42;;;13.50;99.90;;;;;;6221383;28;20501;-78
2022/05/28 15:54:05;;;;;;;12.73;2.20;;;13.20;99.90;;;;;;6224028;28;20133;-77
2022/05/28 15:57:08;;;;;;;16.65;2.72;;;12.40;99.90;;;;;;6225790;28;20050;-77
2022/05/28 16:00:11;;;;;;;;;;;11.60;99.90;;;;;;6225786;28;20140;-77
2022/05/28 16:03:13;;;;;;;14.15;2.33;;;11.10;99.90;;;;;;6226175;28;20011;-77
2022/05/28 16:06:15;;;;;;;12.93;3.10;;;11.00;99.90;;;;;;6223203;28;20290;-78
2022/05/28 16:09:17;;;;;;;12.93;2.40;;;11.10;99.90;;;;;;6213497;28;20185;-76
2022/05/28 16:12:20;;;;;;;12.50;2.25;;;11.10;99.90;;;;;;6201111;28;20330;-77
2022/05/28 16:15:22;;;;;;;11.73;2.25;;;11.40;99.90;;;;;;6200907;28;20125;-77
2022/05/28 16:18:24;;;;;;;10.48;1.80;;;11.80;99.90;;;;;;6219939;28;20112;-78